Time;durP1;ratioP1;P1;durP2;ratioP2;P2;SDS_P1;SDS_P2;PMS_P1;PMS_P2;Temp;Humidity;BMP_temperature;BMP_pressure;BME280_temperature;BME280_humidity;BME280_pressure;Samples;Min_cycle;Max_cycle;Signal;HPM_P1;HPM_P2
2023/07/08 00:01:55;;;;;;;0.00;0.00;;;19.70;99.90;;;;;;5131769;27;20043;-67
2023/07/08 00:04:22;;;;;;;0.30;0.20;;;19.60;99.90;;;;;;5144687;27;20093;-67
2023/07/08 00:06:48;;;;;;;0.20;0.13;;;19.70;99.90;;;;;;5129646;27;20455;-67
2023/07/08 00:09:13;;;;;;;10.32;0.55;;;19.70;99.90;;;;;;5147350;27;20066;-67
2023/07/08 00:11:39;;;;;;;4.55;0.90;;;19.60;99.90;;;;;;5143206;27;20402;-67
2023/07/08 00:14:04;;;;;;;0.00;0.00;;;19.60;99.90;;;;;;5138216;27;20031;-67
2023/07/08 00:16:30;;;;;;;0.77;0.77;;;19.60;99.90;;;;;;5130135;27;20035;-67
2023/07/08 00:18:56;;;;;;;0.00;0.00;;;19.60;99.90;;;;;;5150471;27;20060;-67
2023/07/08 00:21:21;;;;;;;0.10;0.10;;;19.60;99.90;;;;;;5148993;27;20091;-67
2023/07/08 00:23:49;;;;;;;0.20;0.20;;;19.50;99.90;;;;;;5120373;27;20394;-67
2023/07/08 00:26:27;;;;;;;1.00;0.43;;;19.50;99.90;;;;;;5141915;27;20127;-67
2023/07/08 00:28:54;;;;;;;0.00;0.00;;;19.50;99.90;;;;;;5146735;27;20038;-67
2023/07/08 00:31:23;;;;;;;0.00;0.00;;;19.40;99.90;;;;;;5146625;27;20505;-67
2023/07/08 00:33:57;;;;;;;0.00;0.00;;;19.50;99.90;;;;;;5142051;27;20494;-67
2023/07/08 00:36:24;;;;;;;0.15;0.15;;;19.50;99.90;;;;;;5143971;27;20059;-67
2023/07/08 00:38:50;;;;;;;0.00;0.00;;;19.30;99.90;;;;;;5146956;27;20039;-67
2023/07/08 00:41:21;;;;;;;0.00;0.00;;;19.40;99.90;;;;;;5149741;27;20049;-67
2023/07/08 00:43:55;;;;;;;0.20;0.15;;;19.30;99.90;;;;;;5139705;27;20038;-67
2023/07/08 00:46:26;;;;;;;0.20;0.13;;;19.30;99.90;;;;;;5141667;27;20068;-67
2023/07/08 00:48:56;;;;;;;0.00;0.00;;;19.30;99.90;;;;;;5138194;27;20059;-67
2023/07/08 00:51:23;;;;;;;0.13;0.13;;;19.30;99.90;;;;;;5148721;27;20047;-67
2023/07/08 00:53:49;;;;;;;0.85;0.85;;;19.10;99.90;;;;;;5130832;27;20129;-67
2023/07/08 00:56:29;;;;;;;0.00;0.00;;;19.30;99.90;;;;;;5138400;27;20118;-67
2023/07/08 00:59:07;;;;;;;0.17;0.17;;;19.20;99.90;;;;;;5147337;27;20110;-67
2023/07/08 01:01:35;;;;;;;0.30;0.30;;;19.20;99.90;;;;;;5139523;27;20046;-67
2023/07/08 01:04:06;;;;;;;0.38;0.15;;;19.10;99.90;;;;;;5146758;27;20075;-67
2023/07/08 01:06:39;;;;;;;0.00;0.00;;;19.20;99.90;;;;;;5139144;27;20080;-67
2023/07/08 01:09:07;;;;;;;0.00;0.00;;;19.10;99.90;;;;;;5126751;27;20047;-67
2023/07/08 01:11:36;;;;;;;0.47;0.47;;;19.10;99.90;;;;;;5144002;27;20053;-67
2023/07/08 01:14:04;;;;;;;0.20;0.20;;;19.20;99.90;;;;;;5142473;27;20050;-67
2023/07/08 01:16:33;;;;;;;0.10;0.10;;;19.20;99.90;;;;;;5144940;27;20397;-67
2023/07/08 01:19:00;;;;;;;0.00;0.00;;;19.20;99.90;;;;;;5136823;27;20034;-67
2023/07/08 01:21:53;;;;;;;0.38;0.38;;;19.10;99.90;;;;;;5147228;27;20034;-66
2023/07/08 01:24:18;;;;;;;0.20;0.20;;;19.20;99.90;;;;;;5102424;27;20062;-67
2023/07/08 01:26:45;;;;;;;0.00;0.00;;;19.10;99.90;;;;;;5147592;27;20035;-67
2023/07/08 01:29:12;;;;;;;0.90;0.57;;;19.10;99.90;;;;;;5121641;27;20051;-67
2023/07/08 01:31:37;;;;;;;0.10;0.10;;;19.20;99.90;;;;;;5144414;27;20047;-67
2023/07/08 01:34:04;;;;;;;0.43;0.43;;;19.10;99.90;;;;;;5142662;27;20035;-67
2023/07/08 01:36:42;;;;;;;0.10;0.10;;;19.10;99.90;;;;;;5139555;27;20050;-67
2023/07/08 01:39:17;;;;;;;0.00;0.00;;;19.10;99.90;;;;;;5143128;27;20027;-67
2023/07/08 01:41:43;;;;;;;3.92;0.40;;;19.10;99.90;;;;;;5130769;27;20079;-67
2023/07/08 01:44:33;;;;;;;0.38;0.38;;;19.00;99.90;;;;;;5143298;27;20042;-67
2023/07/08 01:47:16;;;;;;;0.15;0.15;;;18.90;99.90;;;;;;5125761;27;20051;-67
2023/07/08 01:49:45;;;;;;;0.05;0.05;;;19.00;99.90;;;;;;5144346;27;20043;-67
2023/07/08 01:52:12;;;;;;;0.05;0.05;;;19.00;99.90;;;;;;5137503;27;20053;-67
2023/07/08 01:54:38;;;;;;;0.85;0.57;;;18.90;99.90;;;;;;5128322;27;20050;-67
2023/07/08 01:57:04;;;;;;;0.00;0.00;;;18.90;99.90;;;;;;5138861;27;20042;-67
2023/07/08 01:59:29;;;;;;;0.10;0.10;;;18.90;99.90;;;;;;5126880;27;20076;-67
2023/07/08 02:01:55;;;;;;;0.05;0.05;;;18.90;99.90;;;;;;5132711;27;20050;-67
2023/07/08 02:04:22;;;;;;;0.00;0.00;;;18.80;99.90;;;;;;5150227;27;20039;-67
2023/07/08 02:06:53;;;;;;;0.32;0.32;;;18.90;99.90;;;;;;5143311;27;20035;-66
2023/07/08 02:09:18;;;;;;;0.57;0.20;;;18.80;99.90;;;;;;5152988;27;20059;-66
2023/07/08 02:11:44;;;;;;;0.15;0.15;;;18.80;99.90;;;;;;5145481;27;20035;-67
2023/07/08 02:14:09;;;;;;;0.00;0.00;;;18.90;99.90;;;;;;5142724;27;20038;-67
2023/07/08 02:16:35;;;;;;;0.00;0.00;;;18.80;99.90;;;;;;5152741;27;20130;-67
2023/07/08 02:19:01;;;;;;;0.00;0.00;;;18.80;99.90;;;;;;5151415;27;20038;-67
2023/07/08 02:21:30;;;;;;;0.38;0.38;;;18.80;99.90;;;;;;5143284;27;20047;-67
2023/07/08 02:23:56;;;;;;;0.68;0.52;;;18.80;99.90;;;;;;5152733;27;20043;-67
2023/07/08 02:26:22;;;;;;;0.20;0.20;;;18.70;99.90;;;;;;5152442;27;20051;-67
2023/07/08 02:28:47;;;;;;;0.60;0.43;;;18.80;99.90;;;;;;5124506;27;20049;-67
2023/07/08 02:31:13;;;;;;;0.10;0.10;;;18.80;99.90;;;;;;5149687;27;20386;-67
2023/07/08 02:33:39;;;;;;;0.98;0.63;;;18.70;99.90;;;;;;5152241;27;20197;-67
2023/07/08 02:36:04;;;;;;;0.00;0.00;;;18.70;99.90;;;;;;5147736;27;20043;-67
2023/07/08 02:38:30;;;;;;;0.17;0.10;;;18.70;99.90;;;;;;5129307;27;20027;-67
2023/07/08 02:40:56;;;;;;;0.52;0.45;;;18.70;99.90;;;;;;5129914;27;20076;-67
2023/07/08 02:43:22;;;;;;;0.00;0.00;;;18.60;99.90;;;;;;5149701;27;20046;-67
2023/07/08 02:45:51;;;;;;;0.20;0.20;;;18.70;99.90;;;;;;5149564;27;20443;-67
2023/07/08 02:48:18;;;;;;;0.35;0.32;;;18.60;99.90;;;;;;5148587;27;20126;-67
2023/07/08 02:50:44;;;;;;;0.00;0.00;;;18.50;99.90;;;;;;5132635;27;20038;-67
2023/07/08 02:53:09;;;;;;;0.28;0.28;;;18.50;99.90;;;;;;5149137;27;20395;-67
2023/07/08 02:55:35;;;;;;;0.08;0.05;;;18.50;99.90;;;;;;5141247;27;20035;-66
2023/07/08 02:58:00;;;;;;;22.95;1.17;;;18.50;99.90;;;;;;5124205;27;20125;-67
2023/07/08 03:00:26;;;;;;;0.10;0.10;;;18.40;99.90;;;;;;5150969;27;20049;-67
2023/07/08 03:02:52;;;;;;;0.20;0.20;;;18.40;99.90;;;;;;5148660;27;20042;-67
2023/07/08 03:05:17;;;;;;;0.15;0.13;;;18.40;99.90;;;;;;5149494;27;20129;-66
2023/07/08 03:07:43;;;;;;;0.13;0.10;;;18.40;99.90;;;;;;5124010;27;20054;-67
2023/07/08 03:10:09;;;;;;;2.00;1.17;;;18.40;99.90;;;;;;5144219;27;20049;-67
2023/07/08 03:12:35;;;;;;;0.20;0.20;;;18.40;99.90;;;;;;5131114;27;20035;-67
2023/07/08 03:15:00;;;;;;;0.00;0.00;;;18.30;99.90;;;;;;5137893;27;20091;-67
2023/07/08 03:17:26;;;;;;;0.35;0.35;;;18.30;99.90;;;;;;5149374;27;20034;-67
2023/07/08 03:19:51;;;;;;;0.10;0.10;;;18.30;99.90;;;;;;5143991;27;20050;-67
2023/07/08 03:22:17;;;;;;;0.00;0.00;;;18.30;99.90;;;;;;5145343;27;20090;-67
2023/07/08 03:24:46;;;;;;;0.20;0.20;;;18.30;99.90;;;;;;5145978;27;20092;-67
2023/07/08 03:27:15;;;;;;;0.10;0.10;;;18.30;99.90;;;;;;5125393;27;20489;-67
2023/07/08 03:29:41;;;;;;;0.15;0.15;;;18.30;99.90;;;;;;5151016;27;20038;-67
2023/07/08 03:32:10;;;;;;;0.20;0.20;;;18.30;99.90;;;;;;5140333;27;20055;-67
2023/07/08 03:34:36;;;;;;;1.55;0.75;;;18.30;99.90;;;;;;5130685;27;20043;-67
2023/07/08 03:37:02;;;;;;;1.08;0.63;;;18.30;99.90;;;;;;5132100;27;20069;-66
2023/07/08 03:39:28;;;;;;;0.20;0.20;;;18.10;99.90;;;;;;5135993;27;20454;-66
2023/07/08 03:41:53;;;;;;;0.00;0.00;;;18.20;99.90;;;;;;5123803;27;20206;-67
2023/07/08 03:44:20;;;;;;;0.28;0.28;;;18.20;99.90;;;;;;5150262;27;20674;-67
2023/07/08 03:46:49;;;;;;;0.10;0.10;;;18.20;99.90;;;;;;5142603;27;20052;-67
2023/07/08 03:49:16;;;;;;;1.20;0.15;;;18.20;99.90;;;;;;5144247;27;20042;-66
2023/07/08 03:51:43;;;;;;;0.63;0.22;;;18.20;99.90;;;;;;5149954;27;20054;-66
2023/07/08 03:54:13;;;;;;;0.08;0.08;;;18.20;99.90;;;;;;5141060;27;20026;-67
2023/07/08 03:56:39;;;;;;;0.00;0.00;;;18.20;99.90;;;;;;5140160;27;20042;-67
2023/07/08 03:59:05;;;;;;;0.00;0.00;;;18.20;99.90;;;;;;5140754;27;20055;-67
2023/07/08 04:01:31;;;;;;;0.45;0.45;;;18.20;99.90;;;;;;5138376;27;20119;-67
2023/07/08 04:03:58;;;;;;;0.00;0.00;;;18.20;99.90;;;;;;5139869;27;20039;-67
2023/07/08 04:06:25;;;;;;;0.20;0.20;;;18.20;99.90;;;;;;5134087;27;20402;-66
2023/07/08 04:08:51;;;;;;;0.00;0.00;;;18.20;99.90;;;;;;5145467;27;20464;-67
2023/07/08 04:11:22;;;;;;;0.00;0.00;;;18.20;99.90;;;;;;5146780;27;20180;-66
2023/07/08 04:13:48;;;;;;;0.08;0.08;;;18.20;99.90;;;;;;5141123;27;20038;-67
2023/07/08 04:16:49;;;;;;;0.10;0.10;;;18.10;99.90;;;;;;5139154;27;20050;-67
2023/07/08 04:19:15;;;;;;;0.10;0.10;;;18.10;99.90;;;;;;5147806;27;20042;-67
2023/07/08 04:21:42;;;;;;;0.20;0.20;;;18.20;99.90;;;;;;5146165;27;20034;-67
2023/07/08 04:24:13;;;;;;;0.10;0.10;;;18.10;99.90;;;;;;5139284;27;20034;-67
2023/07/08 04:26:39;;;;;;;0.03;0.03;;;18.20;99.90;;;;;;5129835;27;20054;-66
2023/07/08 04:29:08;;;;;;;0.10;0.10;;;18.20;99.90;;;;;;5138580;27;20393;-66
2023/07/08 04:31:34;;;;;;;0.10;0.10;;;18.20;99.90;;;;;;5128455;27;20047;-66
2023/07/08 04:33:59;;;;;;;0.30;0.30;;;18.20;99.90;;;;;;5144784;27;20103;-67
2023/07/08 04:36:26;;;;;;;0.85;0.40;;;18.20;99.90;;;;;;5145992;27;20042;-66
2023/07/08 04:38:52;;;;;;;0.13;0.13;;;18.20;99.90;;;;;;5141424;27;20072;-66
2023/07/08 04:41:18;;;;;;;0.25;0.25;;;18.20;99.90;;;;;;5148659;27;20125;-67
2023/07/08 04:43:44;;;;;;;0.43;0.43;;;18.30;99.90;;;;;;5142207;27;20146;-67
2023/07/08 04:46:37;;;;;;;0.75;0.28;;;18.30;99.90;;;;;;5129341;27;20122;-67
2023/07/08 04:49:03;;;;;;;6.90;1.35;;;18.30;99.90;;;;;;5141819;27;20046;-66
2023/07/08 04:51:29;;;;;;;0.00;0.00;;;18.40;99.90;;;;;;5148093;27;20119;-66
2023/07/08 04:53:55;;;;;;;0.00;0.00;;;18.40;99.90;;;;;;5144086;27;20034;-66
2023/07/08 04:56:22;;;;;;;0.35;0.32;;;18.40;99.90;;;;;;5123440;27;20149;-67
2023/07/08 04:58:47;;;;;;;0.35;0.35;;;18.50;99.90;;;;;;5137302;27;20118;-67
2023/07/08 05:01:13;;;;;;;0.80;0.75;;;18.50;99.90;;;;;;5139624;27;20749;-66
2023/07/08 05:03:39;;;;;;;0.38;0.32;;;18.50;99.90;;;;;;5139924;27;20032;-66
2023/07/08 05:06:04;;;;;;;0.22;0.22;;;18.50;99.90;;;;;;5143589;27;20677;-66
2023/07/08 05:08:30;;;;;;;1.17;1.02;;;18.50;99.90;;;;;;5123387;27;20070;-66
2023/07/08 05:10:56;;;;;;;0.20;0.20;;;18.60;99.90;;;;;;5149157;27;20043;-66
2023/07/08 05:13:22;;;;;;;0.00;0.00;;;18.60;99.90;;;;;;5142074;27;20513;-67
2023/07/08 05:15:48;;;;;;;0.45;0.45;;;18.60;99.90;;;;;;5135975;27;20042;-67
2023/07/08 05:18:14;;;;;;;0.00;0.00;;;18.60;99.90;;;;;;5143153;27;20385;-67
2023/07/08 05:20:40;;;;;;;0.00;0.00;;;18.70;99.90;;;;;;5145116;27;20035;-67
2023/07/08 05:23:05;;;;;;;0.32;0.32;;;18.70;99.90;;;;;;5144894;27;20152;-67
2023/07/08 05:25:33;;;;;;;1.95;0.93;;;18.70;99.90;;;;;;5149091;27;20066;-67
2023/07/08 05:27:58;;;;;;;0.40;0.40;;;18.70;99.90;;;;;;5143231;27;20436;-66
2023/07/08 05:30:24;;;;;;;0.00;0.00;;;18.80;99.90;;;;;;5144275;27;20042;-67
2023/07/08 05:32:49;;;;;;;0.95;0.85;;;18.80;99.90;;;;;;5149993;27;20053;-67
2023/07/08 05:35:15;;;;;;;0.13;0.13;;;18.80;99.90;;;;;;5148613;27;20043;-67
2023/07/08 05:37:41;;;;;;;0.10;0.10;;;18.90;99.90;;;;;;5150489;27;20474;-67
2023/07/08 05:40:08;;;;;;;0.10;0.10;;;18.90;99.90;;;;;;5149473;27;20039;-67
2023/07/08 05:42:34;;;;;;;5.72;0.93;;;18.90;99.90;;;;;;5154509;27;20412;-66
2023/07/08 05:44:59;;;;;;;0.08;0.08;;;19.00;99.90;;;;;;5132405;27;20042;-66
2023/07/08 05:47:25;;;;;;;0.20;0.20;;;19.00;99.90;;;;;;5148615;27;20046;-66
2023/07/08 05:49:51;;;;;;;0.47;0.47;;;19.00;99.90;;;;;;5153779;27;20039;-67
2023/07/08 05:52:16;;;;;;;0.03;0.03;;;19.00;99.90;;;;;;5152072;27;20540;-66
2023/07/08 05:54:42;;;;;;;0.10;0.10;;;19.10;99.90;;;;;;5127209;27;20047;-66
2023/07/08 05:57:10;;;;;;;0.30;0.30;;;19.20;99.90;;;;;;5145505;27;20045;-66
2023/07/08 05:59:38;;;;;;;0.05;0.05;;;19.30;99.90;;;;;;5133980;27;20066;-66
2023/07/08 06:02:04;;;;;;;0.22;0.22;;;19.30;99.90;;;;;;5123787;27;20047;-67
2023/07/08 06:04:30;;;;;;;0.00;0.00;;;19.30;99.90;;;;;;5151885;27;20086;-66
2023/07/08 06:06:56;;;;;;;0.77;0.15;;;19.40;99.90;;;;;;5143678;27;20028;-66
2023/07/08 06:09:22;;;;;;;0.10;0.10;;;19.40;99.90;;;;;;5149330;27;20049;-67
2023/07/08 06:11:47;;;;;;;0.10;0.10;;;19.50;99.90;;;;;;5136525;27;20039;-67
2023/07/08 06:14:13;;;;;;;0.08;0.08;;;19.60;99.90;;;;;;5152056;27;20047;-67
2023/07/08 06:16:39;;;;;;;0.13;0.13;;;19.60;99.90;;;;;;5147218;27;20398;-66
2023/07/08 06:19:05;;;;;;;0.00;0.00;;;19.60;99.90;;;;;;5152225;27;20034;-67
2023/07/08 06:21:31;;;;;;;0.15;0.15;;;19.70;99.90;;;;;;5152812;27;20043;-67
2023/07/08 06:23:56;;;;;;;0.00;0.00;;;19.80;99.90;;;;;;5145552;27;20060;-67
2023/07/08 06:26:23;;;;;;;0.32;0.32;;;19.80;99.90;;;;;;5147893;27;20066;-67
2023/07/08 06:28:49;;;;;;;0.13;0.13;;;19.90;99.90;;;;;;5150670;27;20544;-67
2023/07/08 06:31:15;;;;;;;0.00;0.00;;;20.00;99.90;;;;;;5138280;27;20051;-67
2023/07/08 06:33:42;;;;;;;0.13;0.13;;;20.00;99.90;;;;;;5148728;27;20046;-66
2023/07/08 06:36:08;;;;;;;0.03;0.03;;;20.10;99.90;;;;;;5150628;27;20532;-67
2023/07/08 06:38:34;;;;;;;0.08;0.00;;;20.20;99.90;;;;;;5145838;27;20030;-66
2023/07/08 06:40:59;;;;;;;0.00;0.00;;;20.20;99.90;;;;;;5131686;27;20046;-67
2023/07/08 06:43:25;;;;;;;0.30;0.30;;;20.30;99.90;;;;;;5150003;27;20514;-66
2023/07/08 06:45:51;;;;;;;0.20;0.15;;;20.40;99.90;;;;;;5144482;27;20035;-66
2023/07/08 06:48:16;;;;;;;0.00;0.00;;;20.40;99.90;;;;;;5146080;27;20046;-67
2023/07/08 06:50:46;;;;;;;0.00;0.00;;;20.50;99.90;;;;;;5149794;27;20074;-67
2023/07/08 06:53:11;;;;;;;0.00;0.00;;;20.60;99.90;;;;;;5150947;27;20055;-66
2023/07/08 06:55:37;;;;;;;0.15;0.15;;;20.70;99.90;;;;;;5144741;27;20039;-67
2023/07/08 06:58:03;;;;;;;0.00;0.00;;;20.70;99.90;;;;;;5147394;27;20139;-67
2023/07/08 07:00:28;;;;;;;0.00;0.00;;;20.80;99.90;;;;;;5144062;27;20123;-67
2023/07/08 07:02:54;;;;;;;0.10;0.03;;;20.90;99.90;;;;;;5145499;27;20114;-67
2023/07/08 07:05:19;;;;;;;0.00;0.00;;;20.90;99.90;;;;;;5143712;27;20149;-67
2023/07/08 07:07:45;;;;;;;0.00;0.00;;;21.00;99.90;;;;;;5150585;27;20517;-67
2023/07/08 07:10:10;;;;;;;0.00;0.00;;;21.10;99.90;;;;;;5150814;27;20042;-67
2023/07/08 07:12:36;;;;;;;0.00;0.00;;;21.10;99.90;;;;;;5141624;27;20039;-67
2023/07/08 07:15:03;;;;;;;0.00;0.00;;;21.20;99.90;;;;;;5152318;27;20095;-67
2023/07/08 07:17:29;;;;;;;8.57;0.45;;;21.30;99.90;;;;;;5137455;27;20047;-67
2023/07/08 07:19:54;;;;;;;0.00;0.00;;;21.40;99.90;;;;;;5128284;27;20042;-67
2023/07/08 07:22:20;;;;;;;0.20;0.20;;;21.40;99.90;;;;;;5146508;27;20043;-67
2023/07/08 07:24:46;;;;;;;0.00;0.00;;;21.50;99.90;;;;;;5151258;27;20087;-67
2023/07/08 07:27:12;;;;;;;0.55;0.55;;;21.60;99.90;;;;;;5138935;27;20056;-67
2023/07/08 07:29:46;;;;;;;0.00;0.00;;;21.70;99.90;;;;;;5146885;27;20039;-67
2023/07/08 07:32:13;;;;;;;0.47;0.47;;;21.70;99.90;;;;;;5149732;27;20051;-67
2023/07/08 07:34:39;;;;;;;0.00;0.00;;;21.80;99.90;;;;;;5148448;27;20064;-67
2023/07/08 07:37:11;;;;;;;2.17;0.50;;;21.80;99.90;;;;;;5148005;27;20266;-67
2023/07/08 07:39:37;;;;;;;0.38;0.38;;;21.90;99.90;;;;;;5149463;27;20065;-67
2023/07/08 07:42:03;;;;;;;0.00;0.00;;;22.00;99.90;;;;;;5152012;27;20510;-67
2023/07/08 07:44:28;;;;;;;0.00;0.00;;;22.00;99.90;;;;;;5137880;27;20090;-67
2023/07/08 07:46:54;;;;;;;0.00;0.00;;;22.10;99.90;;;;;;5146687;27;20070;-68
2023/07/08 07:49:20;;;;;;;0.73;0.40;;;22.20;99.90;;;;;;5151206;27;20046;-67
2023/07/08 07:51:46;;;;;;;3.20;1.45;;;22.20;99.90;;;;;;5142209;27;20458;-66
2023/07/08 07:54:11;;;;;;;0.00;0.00;;;22.30;99.90;;;;;;5145198;27;20126;-66
2023/07/08 07:56:37;;;;;;;0.00;0.00;;;22.40;99.90;;;;;;5145424;27;20045;-66
2023/07/08 07:59:03;;;;;;;0.00;0.00;;;22.40;99.90;;;;;;5144059;27;20474;-67
2023/07/08 08:01:29;;;;;;;0.20;0.10;;;22.40;99.90;;;;;;5141553;27;20109;-67
2023/07/08 08:03:55;;;;;;;0.45;0.45;;;22.50;99.90;;;;;;5150568;27;20039;-67
2023/07/08 08:06:21;;;;;;;0.30;0.20;;;22.50;99.90;;;;;;5144864;27;20049;-67
2023/07/08 08:08:47;;;;;;;0.00;0.00;;;22.50;99.90;;;;;;5151791;27;20039;-67
2023/07/08 08:11:13;;;;;;;0.22;0.22;;;22.60;99.90;;;;;;5146572;27;20046;-67
2023/07/08 08:13:38;;;;;;;2.90;0.52;;;22.60;99.90;;;;;;5145328;27;20030;-67
2023/07/08 08:16:04;;;;;;;0.32;0.28;;;22.70;99.90;;;;;;5137337;27;20126;-67
2023/07/08 08:18:30;;;;;;;0.22;0.15;;;22.80;99.90;;;;;;5138685;27;20050;-67
2023/07/08 08:20:56;;;;;;;0.10;0.10;;;22.90;99.90;;;;;;5144924;27;20035;-67
2023/07/08 08:23:21;;;;;;;0.20;0.20;;;22.90;99.90;;;;;;5148656;27;20118;-67
2023/07/08 08:25:47;;;;;;;0.00;0.00;;;23.00;99.90;;;;;;5150570;27;20035;-67
2023/07/08 08:28:13;;;;;;;0.10;0.10;;;23.00;99.90;;;;;;5148947;27;20093;-67
2023/07/08 08:30:39;;;;;;;0.00;0.00;;;23.10;99.90;;;;;;5124946;27;20030;-67
2023/07/08 08:33:05;;;;;;;0.00;0.00;;;23.10;99.90;;;;;;5143906;27;20091;-67
2023/07/08 08:35:30;;;;;;;0.00;0.00;;;23.20;99.90;;;;;;5149546;27;20047;-67
2023/07/08 08:37:56;;;;;;;0.10;0.10;;;23.20;99.90;;;;;;5139035;27;20046;-67
2023/07/08 08:40:22;;;;;;;0.20;0.20;;;23.30;99.90;;;;;;5128542;27;20049;-67
2023/07/08 08:43:11;;;;;;;0.00;0.00;;;23.40;99.90;;;;;;5141375;27;20125;-67
2023/07/08 08:46:00;;;;;;;0.10;0.10;;;23.50;99.90;;;;;;5147181;27;20062;-67
2023/07/08 08:48:29;;;;;;;0.03;0.03;;;23.50;99.90;;;;;;5149532;27;20038;-67
2023/07/08 08:51:12;;;;;;;0.00;0.00;;;23.50;99.90;;;;;;5146042;27;20055;-67
2023/07/08 08:53:38;;;;;;;0.00;0.00;;;23.60;99.90;;;;;;5127377;27;20126;-67
2023/07/08 08:56:17;;;;;;;0.13;0.13;;;23.70;99.90;;;;;;5139549;27;20161;-67
2023/07/08 08:59:02;;;;;;;0.17;0.17;;;23.70;99.90;;;;;;5144847;27;20034;-67
2023/07/08 09:01:28;;;;;;;0.00;0.00;;;23.80;99.90;;;;;;5148103;27;20030;-67
2023/07/08 09:04:05;;;;;;;0.05;0.05;;;23.90;99.90;;;;;;5137516;27;20443;-67
2023/07/08 09:06:34;;;;;;;0.00;0.00;;;24.00;99.90;;;;;;5137807;27;20087;-67
2023/07/08 09:09:28;;;;;;;4.32;0.47;;;24.00;99.90;;;;;;5140261;27;20087;-67
2023/07/08 09:12:11;;;;;;;0.30;0.30;;;24.10;99.90;;;;;;5140746;27;20117;-67
2023/07/08 09:14:40;;;;;;;0.43;0.35;;;24.10;99.90;;;;;;5137994;27;20107;-67
2023/07/08 09:17:31;;;;;;;0.10;0.10;;;24.30;99.90;;;;;;5135099;27;20073;-67
2023/07/08 09:20:03;;;;;;;0.75;0.45;;;24.30;99.90;;;;;;5126215;27;20043;-67
2023/07/08 09:22:38;;;;;;;0.00;0.00;;;24.40;99.90;;;;;;5140131;27;20138;-67
2023/07/08 09:25:44;;;;;;;0.00;0.00;;;24.50;99.90;;;;;;5143288;27;20046;-67
2023/07/08 09:28:14;;;;;;;0.00;0.00;;;24.70;99.90;;;;;;5132793;27;20114;-67
2023/07/08 09:30:39;;;;;;;0.32;0.32;;;24.70;99.90;;;;;;5147899;27;20078;-68
2023/07/08 09:33:08;;;;;;;0.00;0.00;;;24.90;99.90;;;;;;5148809;27;20086;-67
2023/07/08 09:35:45;;;;;;;0.08;0.08;;;24.90;99.90;;;;;;5144847;27;20732;-67
2023/07/08 09:38:16;;;;;;;0.10;0.10;;;25.10;99.90;;;;;;5140107;27;20099;-68
2023/07/08 09:40:48;;;;;;;0.00;0.00;;;25.20;99.90;;;;;;5141796;27;20042;-68
2023/07/08 09:43:27;;;;;;;0.10;0.10;;;25.30;99.90;;;;;;5141817;27;20038;-67
2023/07/08 09:45:59;;;;;;;0.65;0.17;;;25.40;99.90;;;;;;5138333;27;20537;-68
2023/07/08 09:48:27;;;;;;;1.98;0.95;;;25.60;99.90;;;;;;5150040;27;20045;-67
2023/07/08 09:50:55;;;;;;;0.08;0.08;;;26.00;99.90;;;;;;5119424;27;20435;-68
2023/07/08 09:53:21;;;;;;;0.08;0.08;;;26.50;99.90;;;;;;5142372;27;20038;-67
2023/07/08 09:55:47;;;;;;;0.00;0.00;;;26.90;99.90;;;;;;5144318;27;20037;-68
2023/07/08 09:58:21;;;;;;;0.10;0.08;;;27.20;99.90;;;;;;5146252;27;20060;-67
2023/07/08 10:00:53;;;;;;;0.00;0.00;;;27.50;99.90;;;;;;5136756;27;20050;-68
2023/07/08 10:03:25;;;;;;;0.30;0.30;;;27.80;99.90;;;;;;5133777;27;20046;-68
2023/07/08 10:05:57;;;;;;;0.43;0.40;;;28.00;99.90;;;;;;5145499;27;20034;-68
2023/07/08 10:08:24;;;;;;;0.00;0.00;;;28.10;99.90;;;;;;5136772;27;20363;-68
2023/07/08 10:11:04;;;;;;;0.20;0.03;;;28.50;99.90;;;;;;5125446;27;20593;-68
2023/07/08 10:13:46;;;;;;;0.00;0.00;;;28.50;99.90;;;;;;5133392;27;20458;-67
2023/07/08 10:16:22;;;;;;;0.03;0.03;;;28.50;99.90;;;;;;5139056;27;20039;-68
2023/07/08 10:18:48;;;;;;;0.22;0.10;;;28.70;99.70;;;;;;5118558;27;20513;-68
2023/07/08 10:21:42;;;;;;;0.00;0.00;;;28.60;99.90;;;;;;5149807;27;20043;-68
2023/07/08 10:24:26;;;;;;;0.05;0.05;;;28.70;99.80;;;;;;5151950;27;20482;-68
2023/07/08 10:27:26;;;;;;;0.17;0.17;;;28.90;99.50;;;;;;5138307;27;20486;-68
2023/07/08 10:30:06;;;;;;;0.00;0.00;;;29.00;99.20;;;;;;5142430;27;20057;-68
2023/07/08 10:32:53;;;;;;;0.05;0.05;;;29.10;99.40;;;;;;5142660;27;20058;-67
2023/07/08 10:35:26;;;;;;;0.05;0.05;;;29.20;99.40;;;;;;5149370;27;20451;-68
2023/07/08 10:38:22;;;;;;;0.10;0.10;;;29.50;99.50;;;;;;5153173;27;20468;-68
2023/07/08 10:41:15;;;;;;;0.03;0.03;;;29.60;98.90;;;;;;5140827;27;20047;-68
2023/07/08 10:43:55;;;;;;;0.30;0.30;;;29.50;99.10;;;;;;5145594;27;20092;-68
2023/07/08 10:46:29;;;;;;;0.00;0.00;;;29.70;98.90;;;;;;5152493;27;20102;-68
2023/07/08 10:48:58;;;;;;;0.15;0.15;;;29.60;98.80;;;;;;5140187;27;20055;-68
2023/07/08 10:51:35;;;;;;;0.57;0.57;;;29.60;98.40;;;;;;5143180;27;20043;-68
2023/07/08 10:54:16;;;;;;;0.10;0.05;;;29.50;98.70;;;;;;5151409;27;20121;-68
2023/07/08 10:56:54;;;;;;;0.00;0.00;;;29.60;99.10;;;;;;5143119;27;20083;-68
2023/07/08 10:59:37;;;;;;;0.30;0.17;;;29.60;99.20;;;;;;5148463;27;20047;-68
2023/07/08 11:02:22;;;;;;;0.20;0.20;;;29.70;99.00;;;;;;5150653;27;20163;-68
2023/07/08 11:05:06;;;;;;;0.35;0.35;;;29.70;99.00;;;;;;5146879;27;20047;-68
2023/07/08 11:07:52;;;;;;;0.30;0.30;;;29.80;98.70;;;;;;5144516;27;20039;-68
2023/07/08 11:10:29;;;;;;;0.00;0.00;;;29.90;99.00;;;;;;5147717;27;20043;-68
2023/07/08 11:13:03;;;;;;;0.00;0.00;;;30.00;98.00;;;;;;5142434;27;20042;-68
2023/07/08 11:15:35;;;;;;;0.00;0.00;;;30.10;99.00;;;;;;5146511;27;20039;-68
2023/07/08 11:18:01;;;;;;;;;;;30.20;98.60;;;;;;5133298;27;20090;-68
2023/07/08 11:20:46;;;;;;;0.10;0.10;;;30.20;98.90;;;;;;5123423;27;19922;-68
2023/07/08 11:23:27;;;;;;;0.00;0.00;;;30.40;98.60;;;;;;5148615;27;20394;-68
2023/07/08 11:26:05;;;;;;;0.00;0.00;;;30.40;98.10;;;;;;5138484;27;20043;-68
2023/07/08 11:28:30;;;;;;;0.15;0.08;;;30.40;98.00;;;;;;5144779;27;20047;-68
2023/07/08 11:31:00;;;;;;;0.00;0.00;;;30.60;97.50;;;;;;5147565;27;20050;-68
2023/07/08 11:33:27;;;;;;;0.10;0.10;;;30.70;97.90;;;;;;5140330;27;20532;-68
2023/07/08 11:35:58;;;;;;;0.63;0.63;;;30.70;97.70;;;;;;5149501;27;20041;-68
2023/07/08 11:38:25;;;;;;;0.00;0.00;;;30.70;97.30;;;;;;5144237;27;20042;-68
2023/07/08 11:41:00;;;;;;;0.00;0.00;;;30.90;97.20;;;;;;5148738;27;20047;-68
2023/07/08 11:43:33;;;;;;;0.20;0.20;;;31.00;97.40;;;;;;5149495;27;20075;-68
2023/07/08 11:46:06;;;;;;;0.00;0.00;;;31.20;97.30;;;;;;5149653;27;20129;-68
2023/07/08 11:48:46;;;;;;;0.43;0.40;;;31.40;97.50;;;;;;5142085;27;20050;-68
2023/07/08 11:51:19;;;;;;;0.00;0.00;;;31.30;96.90;;;;;;5137771;27;20537;-68
2023/07/08 11:53:59;;;;;;;1.40;0.22;;;31.50;96.90;;;;;;5126372;27;20054;-68
2023/07/08 11:56:26;;;;;;;0.00;0.00;;;31.70;97.30;;;;;;5141418;27;20095;-68
2023/07/08 11:59:09;;;;;;;0.30;0.30;;;31.70;97.00;;;;;;5143026;27;20028;-68
2023/07/08 12:01:48;;;;;;;0.15;0.15;;;31.80;95.60;;;;;;5136062;27;20078;-68
2023/07/08 12:04:35;;;;;;;0.00;0.00;;;31.90;96.30;;;;;;5146836;27;20091;-68
2023/07/08 12:07:19;;;;;;;0.10;0.10;;;32.00;95.80;;;;;;5150848;27;20049;-68
2023/07/08 12:09:59;;;;;;;1.67;0.88;;;31.90;95.90;;;;;;5146316;27;20043;-68
2023/07/08 12:12:31;;;;;;;0.10;0.10;;;32.10;95.60;;;;;;5145706;27;20047;-68
2023/07/08 12:15:11;;;;;;;1.83;0.70;;;32.10;95.70;;;;;;5151056;27;20117;-68
2023/07/08 12:17:39;;;;;;;0.32;0.22;;;32.10;95.90;;;;;;5150366;27;20422;-68
2023/07/08 12:20:17;;;;;;;2.70;0.30;;;32.40;95.50;;;;;;5146882;27;20034;-68
2023/07/08 12:22:42;;;;;;;0.00;0.00;;;32.40;95.30;;;;;;5139770;27;20046;-68
2023/07/08 12:25:17;;;;;;;1.60;0.52;;;32.50;94.90;;;;;;5130626;27;20513;-68
2023/07/08 12:27:44;;;;;;;0.38;0.30;;;32.40;95.20;;;;;;5138966;27;20088;-68
2023/07/08 12:30:11;;;;;;;0.10;0.10;;;32.50;94.90;;;;;;5139389;27;20050;-68
2023/07/08 12:32:37;;;;;;;0.00;0.00;;;32.50;94.30;;;;;;5148559;27;20129;-68
2023/07/08 12:35:05;;;;;;;0.00;0.00;;;32.70;95.10;;;;;;5148402;27;20042;-68
2023/07/08 12:37:31;;;;;;;0.30;0.10;;;32.80;93.90;;;;;;5141318;27;20068;-68
2023/07/08 12:40:05;;;;;;;0.00;0.00;;;32.80;94.40;;;;;;5149937;27;20083;-68
2023/07/08 12:42:31;;;;;;;0.22;0.22;;;33.00;94.60;;;;;;5126556;27;20490;-68
2023/07/08 12:44:57;;;;;;;0.10;0.10;;;33.00;94.10;;;;;;5144549;27;20091;-68
2023/07/08 12:47:23;;;;;;;0.00;0.00;;;33.00;94.00;;;;;;5146943;27;20039;-68
2023/07/08 12:49:48;;;;;;;0.10;0.10;;;33.00;93.90;;;;;;5146498;27;20038;-68
2023/07/08 12:52:22;;;;;;;0.05;0.05;;;33.00;93.70;;;;;;5143109;27;20043;-68
2023/07/08 12:54:48;;;;;;;0.03;0.03;;;33.10;93.90;;;;;;5138288;27;20051;-68
2023/07/08 12:57:17;;;;;;;0.22;0.22;;;33.20;93.40;;;;;;5150055;27;20039;-68
2023/07/08 12:59:44;;;;;;;1.77;0.22;;;33.30;94.10;;;;;;5142529;27;20333;-68
2023/07/08 13:02:17;;;;;;;0.20;0.20;;;33.50;93.90;;;;;;5146407;27;20074;-68